Time;durP1;ratioP1;P1;durP2;ratioP2;P2;SDS_P1;SDS_P2;PMS_P1;PMS_P2;Temp;Humidity;BMP_temperature;BMP_pressure;BME280_temperature;BME280_humidity;BME280_pressure;Samples;Min_cycle;Max_cycle;Signal;HPM_P1;HPM_P2
2023/01/22 00:02:04;;;;;;;51.20;24.67;;;;;;;-2.88;100.00;103221.25;5041933;28;20115;-57
2023/01/22 00:04:30;;;;;;;51.03;24.97;;;;;;;-2.95;100.00;103217.00;5020404;28;20106;-56
2023/01/22 00:06:55;;;;;;;50.63;24.10;;;;;;;-2.94;100.00;103220.44;5024777;28;20226;-59
2023/01/22 00:09:21;;;;;;;51.03;25.53;;;;;;;-2.91;100.00;103220.41;5031951;28;20033;-57
2023/01/22 00:11:47;;;;;;;51.07;25.33;;;;;;;-2.93;100.00;103222.16;5028865;28;20116;-56
2023/01/22 00:14:13;;;;;;;52.03;24.80;;;;;;;-2.83;100.00;103223.78;5029084;28;20272;-53
2023/01/22 00:16:40;;;;;;;50.80;24.67;;;;;;;-2.84;100.00;103232.47;5033090;28;20037;-55
2023/01/22 00:19:05;;;;;;;46.70;23.90;;;;;;;-2.75;100.00;103226.31;5026856;28;20060;-58
2023/01/22 00:21:30;;;;;;;45.50;22.50;;;;;;;-2.65;100.00;103227.06;5029847;28;20503;-56
2023/01/22 00:23:56;;;;;;;47.73;23.50;;;;;;;-2.68;100.00;103222.78;5032233;28;20048;-56
2023/01/22 00:26:22;;;;;;;49.03;26.07;;;;;;;-2.71;100.00;103215.88;5033391;28;20075;-57
2023/01/22 00:28:47;;;;;;;49.93;26.27;;;;;;;-2.85;100.00;103216.00;5032993;28;20358;-56
2023/01/22 00:31:14;;;;;;;50.70;25.73;;;;;;;-2.82;100.00;103219.47;5022858;28;20120;-57
2023/01/22 00:33:40;;;;;;;52.60;27.57;;;;;;;-2.84;100.00;103217.75;5022623;28;20029;-57
2023/01/22 00:36:08;;;;;;;49.73;24.80;;;;;;;-2.71;100.00;103217.63;5025676;28;20033;-56
2023/01/22 00:38:34;;;;;;;47.53;25.70;;;;;;;-2.72;100.00;103210.69;5028036;28;20676;-57
2023/01/22 00:41:01;;;;;;;50.60;27.90;;;;;;;-2.79;100.00;103203.84;5029707;28;20029;-56
2023/01/22 00:43:26;;;;;;;49.93;22.43;;;;;;;-2.77;100.00;103199.50;5023525;28;20028;-56
2023/01/22 00:45:51;;;;;;;50.43;26.83;;;;;;;-2.79;100.00;103203.84;5032651;28;20025;-56
2023/01/22 00:48:17;;;;;;;52.77;29.43;;;;;;;-3.00;100.00;103206.63;5031231;28;20195;-57
2023/01/22 00:50:42;;;;;;;55.73;29.57;;;;;;;-3.05;100.00;103213.63;5024189;28;20552;-57
2023/01/22 00:53:07;;;;;;;56.43;28.10;;;;;;;-3.09;100.00;103204.13;5030118;28;20048;-56
2023/01/22 00:55:33;;;;;;;51.00;26.17;;;;;;;-2.90;100.00;103204.81;5024749;28;20037;-57
2023/01/22 00:57:58;;;;;;;51.10;28.33;;;;;;;-3.00;100.00;103201.44;5024556;28;20354;-54
2023/01/22 01:00:23;;;;;;;49.87;25.40;;;;;;;-2.92;100.00;103210.91;5024999;28;20080;-56
2023/01/22 01:05:32;;;;;;;49.10;27.10;;;;;;;-2.92;100.00;103193.56;5027120;28;20124;-56
2023/01/22 01:07:57;;;;;;;52.93;27.80;;;;;;;-2.94;100.00;103192.75;5024710;28;20428;-56
2023/01/22 01:10:23;;;;;;;50.10;26.63;;;;;;;-2.85;100.00;103190.03;5017629;28;20109;-56
2023/01/22 01:12:48;;;;;;;52.73;29.37;;;;;;;-2.99;100.00;103185.00;5032105;28;20091;-57
2023/01/22 01:15:13;;;;;;;52.07;27.37;;;;;;;-2.93;100.00;103191.84;5029751;28;20014;-57
2023/01/22 01:17:39;;;;;;;52.87;27.80;;;;;;;-2.94;100.00;103184.06;5032910;28;20398;-57
2023/01/22 01:20:04;;;;;;;48.13;25.47;;;;;;;-2.91;100.00;103184.06;5023842;28;20034;-57
2023/01/22 01:22:30;;;;;;;54.43;29.83;;;;;;;-3.07;100.00;103188.53;5032661;28;20084;-55
2023/01/22 01:24:55;;;;;;;50.37;26.57;;;;;;;-3.01;100.00;103180.69;5022350;28;20048;-57
2023/01/22 01:27:20;;;;;;;50.33;26.40;;;;;;;-3.05;100.00;103171.22;5031310;28;20480;-55
2023/01/22 01:29:45;;;;;;;49.13;25.23;;;;;;;-2.94;100.00;103177.16;5029574;28;20028;-57
2023/01/22 01:32:11;;;;;;;54.97;26.50;;;;;;;-3.05;100.00;103192.84;5026087;28;20119;-56
2023/01/22 01:34:36;;;;;;;47.77;25.63;;;;;;;-2.97;100.00;103179.78;5029951;28;20032;-56
2023/01/22 01:37:01;;;;;;;48.33;26.43;;;;;;;-2.99;100.00;103171.16;5030740;28;20025;-56
2023/01/22 01:39:27;;;;;;;49.07;25.47;;;;;;;-2.92;100.00;103172.81;5029659;28;20107;-58
2023/01/22 01:41:52;;;;;;;47.10;23.33;;;;;;;-2.94;100.00;103173.69;5026030;28;20419;-56
2023/01/22 01:44:20;;;;;;;45.83;24.77;;;;;;;-2.91;100.00;103164.13;5030993;28;20033;-54
2023/01/22 01:46:50;;;;;;;43.80;24.13;;;;;;;-2.92;100.00;103152.03;5030966;28;20076;-56
2023/01/22 01:49:30;;;;;;;46.13;24.73;;;;;;;-2.97;100.00;103149.50;5032169;28;20108;-56
2023/01/22 01:51:59;;;;;;;47.83;25.63;;;;;;;-3.05;100.00;103150.44;5022734;28;20495;-57
2023/01/22 01:54:26;;;;;;;45.87;25.17;;;;;;;-3.02;100.00;103140.88;5029972;28;20090;-56
2023/01/22 01:56:59;;;;;;;41.47;23.13;;;;;;;-2.89;100.00;103130.38;5028746;28;20349;-56
2023/01/22 01:59:25;;;;;;;47.30;25.85;;;;;;;-3.12;100.00;103145.31;5029279;28;20060;-57
2023/01/22 02:01:54;;;;;;;44.57;24.13;;;;;;;-3.03;100.00;103141.75;5029262;28;20116;-56
2023/01/22 02:04:20;;;;;;;47.43;26.07;;;;;;;-3.16;100.00;103135.81;5029525;28;20025;-55
2023/01/22 02:06:46;;;;;;;49.27;28.20;;;;;;;-3.08;100.00;103145.25;5021521;28;20037;-57
2023/01/22 02:09:12;;;;;;;43.53;22.63;;;;;;;-3.14;100.00;103134.09;5030884;28;20033;-56
2023/01/22 02:11:39;;;;;;;42.43;23.43;;;;;;;-2.99;100.00;103145.19;5030402;28;20424;-54
2023/01/22 02:14:11;;;;;;;43.13;24.47;;;;;;;-3.07;100.00;103136.63;5030768;28;20048;-55
2023/01/22 02:16:36;;;;;;;44.80;24.23;;;;;;;-3.02;100.00;103140.00;5027810;28;20061;-56
2023/01/22 02:19:02;;;;;;;42.13;22.77;;;;;;;-3.03;100.00;103133.09;5026086;28;20072;-57
2023/01/22 02:21:38;;;;;;;41.30;22.80;;;;;;;-2.88;100.00;103127.75;5030357;28;20029;-56
2023/01/22 02:24:13;;;;;;;43.27;23.57;;;;;;;-2.88;100.00;103119.09;5022964;28;20091;-56
2023/01/22 02:26:39;;;;;;;37.20;18.20;;;;;;;-2.77;100.00;103124.19;5028433;28;20029;-56
2023/01/22 02:29:07;;;;;;;40.87;22.17;;;;;;;-2.82;100.00;103120.78;5029924;28;20151;-59
2023/01/22 02:31:34;;;;;;;38.30;22.20;;;;;;;-2.90;100.00;103132.13;5023046;28;20052;-57
2023/01/22 02:34:02;;;;;;;40.90;22.53;;;;;;;-2.96;100.00;103129.59;5023803;28;20052;-57
2023/01/22 02:36:29;;;;;;;39.80;24.50;;;;;;;-3.01;100.00;103131.38;5028015;28;20044;-57
2023/01/22 02:38:54;;;;;;;38.97;22.67;;;;;;;-3.05;100.00;103134.88;5018277;28;20029;-53
2023/01/22 02:41:19;;;;;;;38.03;21.73;;;;;;;-3.06;100.00;103133.16;5023488;28;20036;-56
2023/01/22 02:43:45;;;;;;;40.40;22.60;;;;;;;-3.04;100.00;103128.78;5027085;28;20032;-55
2023/01/22 02:46:10;;;;;;;41.00;23.77;;;;;;;-3.06;100.00;103133.16;5025042;28;20071;-57
2023/01/22 02:48:36;;;;;;;38.97;22.27;;;;;;;-3.04;100.00;103140.03;5018288;28;20038;-56
2023/01/22 02:51:01;;;;;;;39.50;21.83;;;;;;;-3.00;100.00;103127.91;5026967;28;20116;-57
2023/01/22 02:53:27;;;;;;;37.87;22.57;;;;;;;-2.98;100.00;103115.75;5021993;28;20057;-56
2023/01/22 02:55:52;;;;;;;36.97;21.77;;;;;;;-2.98;100.00;103119.22;5028542;28;20445;-55
2023/01/22 02:58:17;;;;;;;36.47;21.40;;;;;;;-2.95;100.00;103123.50;5028116;28;20038;-55
2023/01/22 03:00:43;;;;;;;34.80;21.60;;;;;;;-2.93;100.00;103129.53;5027219;28;20088;-56
2023/01/22 03:03:14;;;;;;;37.70;21.23;;;;;;;-2.90;100.00;103124.31;5020772;28;20164;-56
2023/01/22 03:05:45;;;;;;;41.73;21.93;;;;;;;-2.84;100.00;103134.66;5030372;28;20117;-56
2023/01/22 03:08:10;;;;;;;34.97;21.03;;;;;;;-2.77;100.00;103129.38;5025130;28;20050;-57
2023/01/22 03:10:36;;;;;;;37.67;22.80;;;;;;;-2.67;100.00;103117.16;5027084;28;20123;-58
2023/01/22 03:21:15;;;;;;;36.10;21.20;;;;;;;-2.44;100.00;103124.63;5021784;28;20460;-57
2023/01/22 03:23:44;;;;;;;35.53;21.70;;;;;;;-2.42;100.00;103124.63;5022188;28;20049;-57
2023/01/22 03:26:10;;;;;;;34.53;20.73;;;;;;;-2.39;100.00;103116.78;5025157;28;20034;-58
2023/01/22 03:28:36;;;;;;;36.33;21.90;;;;;;;-2.35;100.00;103115.88;5026128;28;20032;-56
2023/01/22 03:31:01;;;;;;;34.93;22.73;;;;;;;-2.31;100.00;103117.56;5026161;28;20037;-56
2023/01/22 03:33:27;;;;;;;36.50;21.40;;;;;;;-2.33;100.00;103114.09;5021398;28;20042;-56
2023/01/22 03:35:52;;;;;;;35.37;21.67;;;;;;;-2.34;100.00;103105.44;5031414;28;20033;-56
2023/01/22 03:38:18;;;;;;;37.40;22.30;;;;;;;-2.30;100.00;103099.34;5029509;28;20488;-56
2023/01/22 03:40:43;;;;;;;34.50;21.10;;;;;;;-2.30;100.00;103107.16;5028037;28;20044;-58
2023/01/22 03:43:08;;;;;;;35.27;22.47;;;;;;;-2.30;100.00;103099.34;5023935;28;20105;-57
2023/01/22 03:45:34;;;;;;;34.37;21.90;;;;;;;-2.33;100.00;103096.78;5033482;28;20478;-54
2023/01/22 03:48:01;;;;;;;33.43;21.20;;;;;;;-2.30;100.00;103094.16;5030140;28;20122;-56
2023/01/22 03:50:26;;;;;;;35.30;22.03;;;;;;;-2.33;100.00;103088.97;5032164;28;20032;-57
2023/01/22 03:52:52;;;;;;;36.23;21.90;;;;;;;-2.31;100.00;103095.00;5027850;28;20030;-56
2023/01/22 03:55:17;;;;;;;34.97;21.17;;;;;;;-2.32;100.00;103090.69;5019603;28;20081;-56
2023/01/22 03:57:42;;;;;;;34.67;22.07;;;;;;;-2.35;100.00;103100.28;5027725;28;20034;-56
2023/01/22 04:00:08;;;;;;;36.73;22.10;;;;;;;-2.38;100.00;103093.38;5032365;28;20049;-57
2023/01/22 04:02:33;;;;;;;34.07;20.87;;;;;;;-2.37;100.00;103097.69;5030711;28;20033;-55
2023/01/22 04:04:59;;;;;;;33.30;21.13;;;;;;;-2.42;100.00;103099.47;5027301;28;20034;-58
2023/01/22 04:07:24;;;;;;;34.23;20.67;;;;;;;-2.45;100.00;103089.16;5027801;28;20025;-57
2023/01/22 04:09:50;;;;;;;35.50;22.87;;;;;;;-2.52;100.00;103087.50;5031422;28;20033;-57
2023/01/22 04:12:16;;;;;;;36.23;20.97;;;;;;;-2.54;100.00;103095.31;5026305;28;20065;-58
2023/01/22 04:14:41;;;;;;;35.00;21.17;;;;;;;-2.59;100.00;103092.78;5024338;28;20029;-57
2023/01/22 04:17:06;;;;;;;34.17;21.30;;;;;;;-2.61;100.00;103098.88;5032518;28;20041;-56
2023/01/22 04:19:32;;;;;;;35.37;21.50;;;;;;;-2.61;100.00;103099.72;5028358;28;20043;-57
2023/01/22 04:21:57;;;;;;;33.90;20.83;;;;;;;-2.61;100.00;103091.09;5025154;28;20044;-56
2023/01/22 04:24:22;;;;;;;36.80;21.23;;;;;;;-2.59;100.00;103089.31;5029612;28;20694;-57
2023/01/22 04:26:47;;;;;;;33.23;20.77;;;;;;;-2.58;100.00;103097.09;5029654;28;20049;-57
2023/01/22 04:29:13;;;;;;;42.07;21.40;;;;;;;-2.49;100.00;103097.84;5032819;28;20044;-57
2023/01/22 04:31:38;;;;;;;37.87;21.70;;;;;;;-2.51;100.00;103089.22;5028677;28;20509;-57
2023/01/22 04:34:03;;;;;;;36.67;22.07;;;;;;;-2.46;100.00;103087.44;5032127;28;20026;-57
2023/01/22 04:36:28;;;;;;;35.60;21.57;;;;;;;-2.45;100.00;103090.03;5031518;28;20469;-56
2023/01/22 04:38:54;;;;;;;36.20;21.40;;;;;;;-2.42;100.00;103096.03;5032948;28;20034;-56
2023/01/22 04:41:19;;;;;;;36.40;22.17;;;;;;;-2.41;100.00;103090.84;5023729;28;20117;-57
2023/01/22 04:43:44;;;;;;;35.30;20.80;;;;;;;-2.37;100.00;103095.09;5024613;28;20054;-57
2023/01/22 04:46:09;;;;;;;35.90;20.93;;;;;;;-2.33;100.00;103090.69;5031165;28;20068;-56
2023/01/22 04:48:35;;;;;;;32.97;19.40;;;;;;;-2.29;100.00;103094.97;5023529;28;20037;-56
2023/01/22 04:51:00;;;;;;;32.80;20.47;;;;;;;-2.22;100.00;103085.38;5022846;28;20404;-57
2023/01/22 04:53:25;;;;;;;32.80;19.87;;;;;;;-2.25;100.00;103095.81;5023726;28;20033;-56
2023/01/22 04:55:50;;;;;;;32.00;19.50;;;;;;;-2.25;100.00;103085.41;5028499;28;20033;-56
2023/01/22 04:58:16;;;;;;;32.03;18.93;;;;;;;-2.23;100.00;103084.50;5030210;28;20704;-56
2023/01/22 05:00:42;;;;;;;34.17;19.37;;;;;;;-2.19;100.00;103087.91;5029482;28;20034;-57
2023/01/22 05:03:08;;;;;;;26.40;14.50;;;;;;;-2.19;100.00;103080.13;5023891;28;20030;-56
2023/01/22 05:05:34;;;;;;;30.87;18.87;;;;;;;-2.23;100.00;103079.31;5032180;28;20045;-56
2023/01/22 05:07:59;;;;;;;31.40;18.87;;;;;;;-2.19;100.00;103080.13;5031358;28;20033;-57
2023/01/22 05:10:25;;;;;;;30.67;18.60;;;;;;;-2.18;100.00;103081.81;5031262;28;20045;-56
2023/01/22 05:12:51;;;;;;;30.37;19.37;;;;;;;-2.21;100.00;103092.28;5032046;28;20449;-57
2023/01/22 05:15:16;;;;;;;31.13;18.97;;;;;;;-2.21;100.00;103087.09;5032968;28;20040;-56
2023/01/22 05:17:41;;;;;;;31.03;18.63;;;;;;;-2.19;100.00;103080.13;5027487;28;20018;-57
2023/01/22 05:20:08;;;;;;;29.23;18.27;;;;;;;-2.17;100.00;103083.56;5017734;28;20397;-56
2023/01/22 05:22:34;;;;;;;29.93;18.67;;;;;;;-2.14;100.00;103090.47;5029825;28;20025;-56
2023/01/22 05:24:59;;;;;;;31.70;19.70;;;;;;;-2.15;100.00;103087.00;5027622;28;20448;-57
2023/01/22 05:27:25;;;;;;;34.57;17.37;;;;;;;-2.16;100.00;103090.47;5015109;28;20032;-55
2023/01/22 05:29:50;;;;;;;27.57;16.20;;;;;;;-2.16;100.00;103083.53;5019244;28;20698;-56
2023/01/22 05:32:15;;;;;;;28.20;17.43;;;;;;;-2.14;100.00;103091.31;5030977;28;20080;-57
2023/01/22 05:34:40;;;;;;;30.27;18.23;;;;;;;-2.18;100.00;103097.44;5032082;28;20653;-57
2023/01/22 05:37:06;;;;;;;30.43;18.53;;;;;;;-2.15;100.00;103094.78;5019580;28;20099;-57
2023/01/22 05:39:31;;;;;;;31.43;19.23;;;;;;;-2.18;100.00;103094.81;5024915;28;20021;-57
2023/01/22 05:41:56;;;;;;;29.87;17.93;;;;;;;-2.17;100.00;103088.78;5022898;28;20038;-57
2023/01/22 05:44:22;;;;;;;29.97;18.10;;;;;;;-2.14;100.00;103098.25;5032288;28;20033;-56
2023/01/22 05:46:47;;;;;;;29.33;18.20;;;;;;;-2.19;100.00;103103.50;5029577;28;20069;-57
2023/01/22 05:49:12;;;;;;;33.33;18.47;;;;;;;-2.19;100.00;103106.09;5029257;28;20908;-57
2023/01/22 05:51:38;;;;;;;30.30;18.33;;;;;;;-2.12;100.00;103115.53;5021411;28;20049;-54
2023/01/22 05:54:03;;;;;;;30.67;18.47;;;;;;;-2.15;100.00;103107.78;5015516;28;20036;-56
2023/01/22 05:56:30;;;;;;;29.60;18.63;;;;;;;-2.18;100.00;103102.63;5023707;28;20048;-56
2023/01/22 05:58:55;;;;;;;30.20;18.40;;;;;;;-2.10;100.00;103121.59;5024934;28;20064;-57
2023/01/22 06:01:21;;;;;;;29.87;19.13;;;;;;;-2.13;100.00;103119.03;5029012;28;20069;-56
2023/01/22 06:03:46;;;;;;;30.93;18.97;;;;;;;-2.13;100.00;103120.78;5029861;28;20460;-56
2023/01/22 06:06:13;;;;;;;28.97;18.70;;;;;;;-2.09;100.00;103120.69;5031119;28;20091;-56
2023/01/22 06:08:39;;;;;;;30.20;19.27;;;;;;;-2.13;100.00;103126.81;5026286;28;20040;-57
2023/01/22 06:11:09;;;;;;;28.90;18.30;;;;;;;-2.13;100.00;103120.78;5031531;28;20041;-56
2023/01/22 06:13:34;;;;;;;30.33;18.27;;;;;;;-2.10;100.00;103119.00;5017722;28;20041;-57
2023/01/22 06:16:00;;;;;;;31.47;18.63;;;;;;;-2.13;100.00;103111.22;5022856;28;20091;-57
2023/01/22 06:18:26;;;;;;;31.33;19.20;;;;;;;-2.13;100.00;103119.03;5028100;28;20083;-55
2023/01/22 06:20:56;;;;;;;29.47;18.07;;;;;;;-2.12;100.00;103106.91;5031214;28;20104;-57
2023/01/22 06:23:21;;;;;;;31.80;18.80;;;;;;;-2.16;100.00;103113.88;5028514;28;20029;-56
2023/01/22 06:25:51;;;;;;;30.63;19.37;;;;;;;-2.17;100.00;103114.75;5021161;28;20029;-57
2023/01/22 06:28:17;;;;;;;32.83;19.13;;;;;;;-2.14;100.00;103119.91;5025514;28;20033;-56
2023/01/22 06:30:42;;;;;;;30.53;18.53;;;;;;;-2.17;100.00;103119.97;5028684;28;20064;-56
2023/01/22 06:33:07;;;;;;;32.70;19.93;;;;;;;-2.16;100.00;103113.88;5022465;28;20065;-56
2023/01/22 06:35:33;;;;;;;30.70;19.33;;;;;;;-2.16;100.00;103116.47;5020760;28;20042;-57
2023/01/22 06:37:58;;;;;;;32.30;19.53;;;;;;;-2.14;100.00;103122.50;5017062;28;20163;-56
2023/01/22 06:40:23;;;;;;;31.07;19.07;;;;;;;-2.10;100.00;103111.19;5026105;28;20036;-58
2023/01/22 06:42:48;;;;;;;33.00;19.77;;;;;;;-2.09;100.00;103117.22;5029871;28;20498;-57
2023/01/22 06:45:14;;;;;;;28.07;17.87;;;;;;;-2.09;100.00;103118.09;5030171;28;20048;-57
2023/01/22 06:47:43;;;;;;;31.07;18.80;;;;;;;-2.09;100.00;103118.09;5026587;28;20037;-58
2023/01/22 06:50:09;;;;;;;32.83;21.37;;;;;;;-2.12;100.00;103118.13;5023333;28;20042;-56
2023/01/22 06:52:35;;;;;;;32.27;20.60;;;;;;;-2.15;100.00;103120.78;5021761;28;20485;-56
2023/01/22 06:55:00;;;;;;;32.13;19.97;;;;;;;-2.12;100.00;103127.69;5020378;28;20048;-56
2023/01/22 06:57:25;;;;;;;30.77;19.33;;;;;;;-2.14;100.00;103125.09;5020623;28;20038;-57
2023/01/22 06:59:51;;;;;;;30.37;19.00;;;;;;;-2.13;100.00;103129.41;5022309;28;20112;-55
2023/01/22 07:02:17;;;;;;;31.57;19.17;;;;;;;-2.13;100.00;103126.81;5030312;28;20037;-57
2023/01/22 07:04:42;;;;;;;31.10;20.00;;;;;;;-2.12;100.00;103131.13;5028357;28;20483;-56
2023/01/22 07:07:08;;;;;;;30.17;19.07;;;;;;;-2.12;100.00;103130.28;5019015;28;20136;-56
2023/01/22 07:09:34;;;;;;;29.37;19.20;;;;;;;-2.12;100.00;103128.53;5016351;28;20057;-59
2023/01/22 07:12:00;;;;;;;31.53;19.20;;;;;;;-2.09;100.00;103131.09;5020935;28;20074;-57
2023/01/22 07:14:26;;;;;;;27.57;18.17;;;;;;;-2.09;100.00;103133.69;5029382;28;20065;-59
2023/01/22 07:16:51;;;;;;;31.47;18.93;;;;;;;-2.10;100.00;103131.13;5023914;28;20064;-59
2023/01/22 07:19:17;;;;;;;30.37;18.17;;;;;;;-2.08;100.00;103138.00;5021473;28;20041;-57
2023/01/22 07:21:42;;;;;;;31.73;19.27;;;;;;;-2.06;100.00;103130.19;5026197;28;20021;-58
2023/01/22 07:24:09;;;;;;;31.30;20.27;;;;;;;-2.07;100.00;103136.28;5021304;28;20413;-56
2023/01/22 07:26:34;;;;;;;34.77;19.93;;;;;;;-2.04;100.00;103136.22;5026055;28;20030;-58
2023/01/22 07:29:01;;;;;;;32.70;20.60;;;;;;;-2.05;100.00;103130.19;5029005;28;20178;-57
2023/01/22 07:31:26;;;;;;;30.13;19.20;;;;;;;-2.04;100.00;103126.69;5024839;28;20537;-57
2023/01/22 07:33:52;;;;;;;33.13;19.13;;;;;;;-2.01;100.00;103132.72;5023312;28;20168;-61
2023/01/22 07:36:17;;;;;;;31.10;18.47;;;;;;;-2.01;100.00;103135.31;5023884;28;20706;-62
2023/01/22 07:38:42;;;;;;;32.17;18.93;;;;;;;-1.98;100.00;103135.31;5025987;28;20038;-56
2023/01/22 07:41:07;;;;;;;29.93;19.07;;;;;;;-1.99;100.00;103137.03;5029539;28;20049;-57
2023/01/22 07:43:33;;;;;;;31.77;19.13;;;;;;;-1.94;100.00;103137.81;5023355;28;20025;-57
2023/01/22 07:46:03;;;;;;;30.50;19.20;;;;;;;-1.91;100.00;103132.56;5034098;28;20038;-57
2023/01/22 07:48:28;;;;;;;29.37;18.50;;;;;;;-1.92;100.00;103130.00;5025889;28;20523;-58
2023/01/22 07:50:57;;;;;;;31.47;19.10;;;;;;;-1.93;100.00;103138.69;5034435;28;20033;-58
2023/01/22 07:53:22;;;;;;;30.30;19.80;;;;;;;-1.93;100.00;103143.91;5025372;28;20033;-56
2023/01/22 07:55:47;;;;;;;30.80;18.83;;;;;;;-1.91;100.00;103152.53;5028769;28;20041;-56
2023/01/22 07:58:13;;;;;;;31.00;19.90;;;;;;;-1.92;100.00;103141.25;5032262;28;20045;-57
2023/01/22 08:00:38;;;;;;;28.07;18.70;;;;;;;-1.93;100.00;103139.53;5026391;28;22127;-56
2023/01/22 08:03:04;;;;;;;30.73;18.30;;;;;;;-1.87;100.00;103148.13;5022655;28;20087;-57
2023/01/22 08:05:29;;;;;;;29.83;18.33;;;;;;;-1.89;100.00;103150.75;5026582;28;20036;-56
2023/01/22 08:07:55;;;;;;;28.13;17.23;;;;;;;-1.84;100.00;103143.75;5034269;28;20064;-56
2023/01/22 08:10:20;;;;;;;29.33;17.17;;;;;;;-1.84;100.00;103146.34;5034469;28;20124;-56
2023/01/22 08:12:45;;;;;;;30.77;18.60;;;;;;;-1.84;100.00;103146.34;5032656;28;20481;-56
2023/01/22 08:15:11;;;;;;;28.40;16.87;;;;;;;-1.80;100.00;103139.34;5030841;28;20036;-56
2023/01/22 08:17:37;;;;;;;28.63;17.40;;;;;;;-1.74;100.00;103151.41;5029992;28;20040;-57
2023/01/22 08:20:03;;;;;;;28.17;17.07;;;;;;;-1.66;100.00;103152.16;5032878;28;20056;-55
2023/01/22 08:22:29;;;;;;;31.07;17.27;;;;;;;-1.60;100.00;103157.25;5028963;28;20411;-56
2023/01/22 08:24:54;;;;;;;29.30;18.63;;;;;;;-1.65;100.00;103152.13;5030388;28;20041;-57
2023/01/22 08:27:20;;;;;;;25.60;15.87;;;;;;;-1.61;100.00;103155.53;5025268;28;20104;-58
2023/01/22 08:29:46;;;;;;;25.73;16.67;;;;;;;-1.58;100.00;103160.69;5029234;28;20040;-57
2023/01/22 08:32:12;;;;;;;26.60;16.17;;;;;;;-1.56;100.00;103168.47;5026366;28;20486;-57
2023/01/22 08:34:37;;;;;;;27.10;17.27;;;;;;;-1.59;100.00;103173.75;5025579;28;20025;-57
2023/01/22 08:37:02;;;;;;;25.87;17.00;;;;;;;-1.59;100.00;103168.53;5024590;28;20025;-58
2023/01/22 08:39:27;;;;;;;26.27;15.67;;;;;;;-1.55;100.00;103176.25;5027332;28;20116;-56
2023/01/22 08:41:56;;;;;;;26.00;16.10;;;;;;;-1.61;100.00;103158.13;5027179;28;20358;-57
2023/01/22 08:44:21;;;;;;;24.47;15.37;;;;;;;-1.53;100.00;103171.88;5025897;28;20030;-56
2023/01/22 08:46:47;;;;;;;24.87;15.27;;;;;;;-1.49;100.00;103165.75;5025133;28;20509;-56
2023/01/22 08:49:12;;;;;;;24.97;14.93;;;;;;;-1.44;100.00;103168.28;5027321;28;20040;-57
2023/01/22 08:51:37;;;;;;;26.10;15.00;;;;;;;-1.50;100.00;103169.25;5022919;28;20520;-56
2023/01/22 08:54:03;;;;;;;23.07;14.53;;;;;;;-1.51;100.00;103175.34;5021080;28;20116;-55
2023/01/22 08:56:28;;;;;;;23.93;14.60;;;;;;;-1.51;100.00;103170.13;5025837;28;20489;-57
2023/01/22 08:58:55;;;;;;;24.57;15.23;;;;;;;-1.49;100.00;103170.97;5023022;28;20423;-56
2023/01/22 09:01:20;;;;;;;24.37;14.63;;;;;;;-1.48;100.00;103177.03;5025575;28;20058;-57
2023/01/22 09:03:48;;;;;;;26.67;15.23;;;;;;;-1.46;100.00;103176.97;5024202;28;20465;-56
2023/01/22 09:06:13;;;;;;;23.23;14.47;;;;;;;-1.45;100.00;103170.88;5029479;28;20032;-57
2023/01/22 09:08:38;;;;;;;23.70;14.93;;;;;;;-1.45;100.00;103176.97;5026816;28;20038;-53
2023/01/22 09:11:05;;;;;;;25.20;14.90;;;;;;;-1.50;100.00;103163.16;5032670;28;20033;-54
2023/01/22 09:13:30;;;;;;;23.43;14.43;;;;;;;-1.50;100.00;103171.84;5032079;28;20034;-53
2023/01/22 09:15:56;;;;;;;23.53;15.40;;;;;;;-1.49;100.00;103176.16;5032473;28;20090;-56
2023/01/22 09:18:21;;;;;;;23.93;14.40;;;;;;;-1.50;100.00;103174.44;5031899;28;20104;-56
2023/01/22 09:20:47;;;;;;;26.37;14.80;;;;;;;-1.49;100.00;103176.16;5022795;28;20025;-57
2023/01/22 09:23:12;;;;;;;25.97;14.93;;;;;;;-1.47;100.00;103173.53;5029407;28;20032;-57
2023/01/22 09:25:37;;;;;;;23.07;14.37;;;;;;;-1.43;100.00;103175.19;5032432;28;20041;-56
2023/01/22 09:28:06;;;;;;;26.87;15.23;;;;;;;-1.40;100.00;103172.56;5020275;28;20096;-56
2023/01/22 09:30:32;;;;;;;23.00;14.90;;;;;;;-1.40;100.00;103179.50;5032649;28;20055;-59
2023/01/22 09:32:57;;;;;;;25.40;14.70;;;;;;;-1.32;100.00;103180.25;5026839;28;20425;-58
2023/01/22 09:35:23;;;;;;;24.83;14.87;;;;;;;-1.24;100.00;103180.97;5028711;28;20033;-57
2023/01/22 09:37:48;;;;;;;24.50;14.03;;;;;;;-1.17;100.00;103186.94;5028658;28;20457;-58
2023/01/22 09:40:23;;;;;;;22.80;13.67;;;;;;;-1.13;100.00;103183.38;5022822;28;20029;-57
2023/01/22 09:42:48;;;;;;;23.70;14.93;;;;;;;-1.08;100.00;103183.31;5025917;28;20560;-60
2023/01/22 09:45:15;;;;;;;23.87;14.53;;;;;;;-1.08;100.00;103178.09;5029853;28;20025;-58
2023/01/22 09:47:47;;;;;;;23.47;14.20;;;;;;;-1.04;100.00;103187.56;5030298;28;20068;-56
2023/01/22 09:50:18;;;;;;;23.00;14.45;;;;;;;-1.07;100.00;103182.41;5020375;28;20022;-57
2023/01/22 09:52:46;;;;;;;21.93;14.00;;;;;;;-1.03;100.00;103199.69;5013480;28;20104;-57
2023/01/22 09:55:13;;;;;;;21.63;14.17;;;;;;;-1.09;100.00;103189.38;5018017;28;20026;-57
2023/01/22 09:57:54;;;;;;;23.03;14.10;;;;;;;-1.04;100.00;103195.38;5026949;28;20117;-57
2023/01/22 10:00:25;;;;;;;22.17;14.03;;;;;;;-1.22;100.00;103171.38;5031894;28;20025;-58
2023/01/22 10:02:59;;;;;;;23.60;14.60;;;;;;;-1.17;100.00;103181.72;5032061;28;20033;-56
2023/01/22 10:05:33;;;;;;;22.27;14.40;;;;;;;-1.18;100.00;103186.94;5030696;28;20036;-58
2023/01/22 10:08:10;;;;;;;24.40;14.43;;;;;;;-1.20;100.00;103186.13;5031455;28;20052;-58
2023/01/22 10:10:35;;;;;;;24.67;14.23;;;;;;;-1.22;100.00;103184.38;5031316;28;20041;-58
2023/01/22 10:13:17;;;;;;;24.47;15.17;;;;;;;-1.21;100.00;103193.06;5022030;28;20038;-57
2023/01/22 10:15:42;;;;;;;22.87;14.77;;;;;;;-1.16;100.00;103198.19;5019696;28;20034;-57
2023/01/22 10:18:22;;;;;;;24.70;14.70;;;;;;;-1.09;100.00;103199.78;5024058;28;20041;-56
2023/01/22 10:20:48;;;;;;;24.40;14.83;;;;;;;-1.07;100.00;103200.66;5028293;28;20641;-57
2023/01/22 10:23:19;;;;;;;23.10;14.53;;;;;;;-1.06;100.00;103204.97;5027177;28;20084;-59
2023/01/22 10:25:44;;;;;;;21.27;13.73;;;;;;;-1.08;100.00;103206.75;5031270;28;20037;-57
2023/01/22 10:28:11;;;;;;;23.63;14.83;;;;;;;-1.09;100.00;103205.00;5030981;28;20065;-57
2023/01/22 10:30:47;;;;;;;23.63;13.83;;;;;;;-1.04;100.00;103202.34;5021084;28;20049;-56
2023/01/22 10:33:21;;;;;;;23.77;14.60;;;;;;;-1.13;100.00;103199.00;5022874;28;20044;-57
2023/01/22 10:35:49;;;;;;;24.73;13.90;;;;;;;-1.14;100.00;103192.06;5030388;28;20476;-57
2023/01/22 10:38:29;;;;;;;24.00;16.30;;;;;;;-1.05;100.00;103185.84;5031617;28;20057;-58
2023/01/22 10:41:01;;;;;;;23.57;14.67;;;;;;;-1.12;100.00;103189.44;5025060;28;20033;-57
2023/01/22 10:43:44;;;;;;;20.60;14.07;;;;;;;-1.10;100.00;103187.66;5027563;28;20097;-58
2023/01/22 10:46:19;;;;;;;23.77;14.63;;;;;;;-1.17;100.00;103196.47;5023953;28;20038;-57
2023/01/22 10:48:44;;;;;;;23.43;13.60;;;;;;;-1.14;100.00;103201.66;5024294;28;20053;-57
2023/01/22 10:51:18;;;;;;;21.80;13.90;;;;;;;-1.13;100.00;103192.94;5023581;28;20552;-58
2023/01/22 10:53:53;;;;;;;22.63;14.07;;;;;;;-1.13;100.00;103203.34;5023614;28;20045;-59
2023/01/22 10:56:34;;;;;;;22.80;14.90;;;;;;;-1.14;100.00;103201.66;5024617;28;20092;-57
2023/01/22 10:59:03;;;;;;;24.23;15.37;;;;;;;-1.18;100.00;103210.38;5031387;28;20037;-57
2023/01/22 11:01:35;;;;;;;22.33;14.03;;;;;;;-1.15;100.00;103205.09;5027933;28;20592;-57
2023/01/22 11:04:20;;;;;;;22.30;14.07;;;;;;;-1.18;100.00;103202.56;5029414;28;20576;-57
2023/01/22 11:06:52;;;;;;;22.53;14.07;;;;;;;-1.18;100.00;103203.41;5025328;28;20037;-58
2023/01/22 11:09:32;;;;;;;22.33;14.30;;;;;;;-1.17;100.00;103196.47;5028618;28;20389;-57
2023/01/22 11:12:09;;;;;;;21.83;13.07;;;;;;;-1.09;100.00;103176.34;5031502;28;20379;-57